createdAt,value
2019-06-01T00:01:44.680Z,2.70
2019-06-01T00:04:19.223Z,2.70
2019-06-01T00:06:55.363Z,3.03
2019-06-01T00:09:28.320Z,2.53
2019-06-01T00:12:00.780Z,2.80
2019-06-01T00:14:36.137Z,2.55
2019-06-01T00:17:09.515Z,2.60
2019-06-01T00:19:44.374Z,3.03
2019-06-01T00:22:18.353Z,3.00
2019-06-01T00:24:52.682Z,2.80
2019-06-01T00:27:28.045Z,3.10
2019-06-01T00:30:04.667Z,2.67
2019-06-01T00:32:41.008Z,3.20
2019-06-01T00:35:13.435Z,2.90
2019-06-01T00:37:47.611Z,3.10
2019-06-01T00:40:22.386Z,3.20
2019-06-01T00:42:55.784Z,3.13
2019-06-01T00:45:30.175Z,3.13
2019-06-01T00:48:03.535Z,2.77
2019-06-01T00:50:43.066Z,3.20
2019-06-01T00:53:17.750Z,3.20
2019-06-01T00:55:51.736Z,3.07
2019-06-01T00:58:25.076Z,2.97
2019-06-01T01:00:58.811Z,2.90
2019-06-01T01:03:31.848Z,2.58
2019-06-01T01:06:04.238Z,2.40
2019-06-01T01:08:36.723Z,3.27
2019-06-01T01:11:09.757Z,2.83
2019-06-01T01:13:42.783Z,2.80
2019-06-01T01:16:15.099Z,3.10
2019-06-01T01:18:47.792Z,2.90
2019-06-01T01:21:20.148Z,3.30
2019-06-01T01:23:53.141Z,3.40
2019-06-01T01:26:25.871Z,3.30
2019-06-01T01:28:58.407Z,3.40
2019-06-01T01:31:32.719Z,3.60
2019-06-01T01:34:05.131Z,3.23
2019-06-01T01:36:38.728Z,3.27
2019-06-01T01:39:11.106Z,3.20
2019-06-01T01:41:44.531Z,3.30
2019-06-01T01:44:17.216Z,3.57
2019-06-01T01:46:50.698Z,3.13
2019-06-01T01:49:23.106Z,3.60
2019-06-01T01:51:55.490Z,3.50
2019-06-01T01:54:28.871Z,3.70
2019-06-01T01:57:02.846Z,3.63
2019-06-01T01:59:35.320Z,3.50
2019-06-01T02:02:07.727Z,3.83
2019-06-01T02:04:40.888Z,3.47
2019-06-01T02:07:13.304Z,3.20
2019-06-01T02:09:45.746Z,3.53
2019-06-01T02:12:18.924Z,3.30
2019-06-01T02:14:51.661Z,3.37
2019-06-01T02:17:24.179Z,3.70
2019-06-01T02:19:56.551Z,3.30
2019-06-01T02:22:28.958Z,2.90
2019-06-01T02:25:02.158Z,3.20
2019-06-01T02:27:34.734Z,3.10
2019-06-01T02:30:07.448Z,3.30
2019-06-01T02:32:39.847Z,3.23
2019-06-01T02:35:12.314Z,2.90
2019-06-01T02:37:44.669Z,3.40
2019-06-01T02:40:18.154Z,3.77
2019-06-01T02:42:50.476Z,3.40
2019-06-01T02:45:23.737Z,3.93
2019-06-01T02:47:57.443Z,3.90
2019-06-01T02:50:31.142Z,3.67
2019-06-01T02:53:03.631Z,3.87
2019-06-01T02:55:37.733Z,3.55
2019-06-01T02:58:11.111Z,3.30
2019-06-01T03:01:29.198Z,3.53
2019-06-01T03:04:03.361Z,3.70
2019-06-01T03:06:38.121Z,3.50
2019-06-01T03:09:10.544Z,3.40
2019-06-01T03:11:42.998Z,3.27
2019-06-01T03:14:15.381Z,2.83
2019-06-01T03:16:47.839Z,3.50
2019-06-01T03:19:20.240Z,3.63
2019-06-01T03:21:56.529Z,3.70
2019-06-01T03:24:31.388Z,3.25
2019-06-01T03:27:04.697Z,3.47
2019-06-01T03:29:40.601Z,3.27
2019-06-01T03:32:29.058Z,2.72
2019-06-01T03:35:07.458Z,3.27
2019-06-01T03:37:39.813Z,3.03
2019-06-01T03:40:23.243Z,3.20
2019-06-01T03:42:56.340Z,3.40
2019-06-01T03:45:29.459Z,3.57
2019-06-01T03:48:02.810Z,3.37
2019-06-01T03:50:37.125Z,3.33
2019-06-01T03:53:09.953Z,3.70
2019-06-01T03:55:42.386Z,3.87
2019-06-01T03:58:14.766Z,3.70
2019-06-01T04:00:48.954Z,4.00
2019-06-01T04:03:22.531Z,3.70
2019-06-01T04:05:54.983Z,3.70
2019-06-01T04:08:32.275Z,3.50
2019-06-01T04:11:05.672Z,3.70
2019-06-01T04:13:39.023Z,3.57
2019-06-01T04:16:16.784Z,3.53
2019-06-01T04:18:50.725Z,3.70
2019-06-01T04:21:23.151Z,3.43
2019-06-01T04:23:57.577Z,3.87
2019-06-01T04:26:39.884Z,3.90
2019-06-01T04:29:21.935Z,4.57
2019-06-01T04:31:54.926Z,4.50
2019-06-01T04:34:28.125Z,3.50
2019-06-01T04:37:03.436Z,4.10
2019-06-01T04:39:36.601Z,4.07
2019-06-01T04:42:09.757Z,3.47
2019-06-01T04:44:42.328Z,3.80
2019-06-01T04:47:14.735Z,4.03
2019-06-01T04:49:47.109Z,4.40
2019-06-01T04:52:21.143Z,4.50
2019-06-01T04:54:53.605Z,4.13
2019-06-01T04:57:33.558Z,4.30
2019-06-01T05:00:21.585Z,4.60
2019-06-01T05:03:05.517Z,3.97
2019-06-01T05:05:39.418Z,4.70
2019-06-01T05:08:12.576Z,3.80
2019-06-01T05:10:46.245Z,4.20
2019-06-01T05:13:18.675Z,4.80
2019-06-01T05:15:54.802Z,4.27
2019-06-01T05:18:28.146Z,4.43
2019-06-01T05:21:01.217Z,4.20
2019-06-01T05:23:37.711Z,4.40
2019-06-01T05:26:11.003Z,5.57
2019-06-01T05:28:44.053Z,7.50
2019-06-01T05:31:24.267Z,5.90
2019-06-01T05:33:57.591Z,7.00
2019-06-01T05:36:30.595Z,7.30
2019-06-01T05:39:03.169Z,7.70
2019-06-01T05:41:35.663Z,6.83
2019-06-01T05:44:08.864Z,7.10
2019-06-01T05:46:43.523Z,7.90
2019-06-01T05:49:16.413Z,8.57
2019-06-01T05:51:49.611Z,8.03
2019-06-01T05:54:22.997Z,7.90
2019-06-01T05:56:55.516Z,8.10
2019-06-01T05:59:28.673Z,8.20
2019-06-01T06:02:01.987Z,8.37
2019-06-01T06:04:34.367Z,8.47
2019-06-01T06:07:07.368Z,7.50
2019-06-01T06:09:39.831Z,7.63
2019-06-01T06:12:13.222Z,7.37
2019-06-01T06:14:45.692Z,8.30
2019-06-01T06:17:19.905Z,7.13
2019-06-01T06:19:53.965Z,7.00
2019-06-01T06:22:26.361Z,7.70
2019-06-01T06:24:58.827Z,7.97
2019-06-01T06:27:31.209Z,7.80
2019-06-01T06:30:06.140Z,7.07
2019-06-01T06:32:38.587Z,6.97
2019-06-01T06:35:15.706Z,6.57
2019-06-01T06:37:48.203Z,6.53
2019-06-01T06:40:20.598Z,6.60
2019-06-01T06:42:54.303Z,6.43
2019-06-01T06:45:26.725Z,7.37
2019-06-01T06:48:00.203Z,7.70
2019-06-01T06:50:33.855Z,7.30
2019-06-01T06:53:08.852Z,6.43
2019-06-01T06:55:41.272Z,8.45
2019-06-01T06:58:18.647Z,8.03
2019-06-01T07:00:53.441Z,8.30
2019-06-01T07:03:27.123Z,7.30
2019-06-01T07:05:59.644Z,7.03
2019-06-01T07:08:32.764Z,7.05
2019-06-01T07:11:05.201Z,6.80
2019-06-01T07:13:38.320Z,5.67
2019-06-01T07:16:10.689Z,6.70
2019-06-01T07:18:43.136Z,7.07
2019-06-01T07:21:15.725Z,7.03
2019-06-01T07:23:48.176Z,7.10
2019-06-01T07:26:22.311Z,6.03
2019-06-01T07:28:55.520Z,6.27
2019-06-01T07:31:29.366Z,6.23
2019-06-01T07:34:01.757Z,5.50
2019-06-01T07:36:35.357Z,6.20
2019-06-01T07:39:08.922Z,5.93
2019-06-01T07:41:41.323Z,5.07
2019-06-01T07:44:14.460Z,5.30
2019-06-01T07:46:47.726Z,5.83
2019-06-01T07:49:21.062Z,6.17
2019-06-01T07:51:56.506Z,4.83
2019-06-01T07:54:29.554Z,3.50
2019-06-01T07:57:03.874Z,4.10
2019-06-01T07:59:37.463Z,4.27
2019-06-01T08:02:10.024Z,4.87
2019-06-01T08:04:53.540Z,4.57
2019-06-01T08:07:27.724Z,4.00
2019-06-01T08:10:01.254Z,2.77
2019-06-01T08:12:33.756Z,3.77
2019-06-01T08:15:08.247Z,3.40
2019-06-01T08:17:40.534Z,2.40
2019-06-01T08:20:13.885Z,3.20
2019-06-01T08:22:50.662Z,3.13
2019-06-01T08:25:26.514Z,3.17
2019-06-01T08:27:58.952Z,3.03
2019-06-01T08:30:31.326Z,2.70
2019-06-01T08:33:05.457Z,3.77
2019-06-01T08:35:38.698Z,4.20
2019-06-01T08:38:44.364Z,3.70
2019-06-01T08:41:18.940Z,3.90
2019-06-01T08:43:51.775Z,4.20
2019-06-01T08:46:25.622Z,4.50
2019-06-01T08:48:58.612Z,3.87
2019-06-01T08:51:32.150Z,3.60
2019-06-01T08:54:05.657Z,4.60
2019-06-01T08:56:39.544Z,3.90
2019-06-01T08:59:12.475Z,3.70
2019-06-01T09:01:49.573Z,5.20
2019-06-01T09:04:26.630Z,3.97
2019-06-01T09:07:00.338Z,4.40
2019-06-01T09:09:33.145Z,3.60
2019-06-01T09:12:15.355Z,4.23
2019-06-01T09:14:48.555Z,3.97
2019-06-01T09:17:22.426Z,3.43
2019-06-01T09:19:55.030Z,3.70
2019-06-01T09:22:31.537Z,3.50
2019-06-01T09:25:05.579Z,4.00
2019-06-01T09:27:55.471Z,4.20
2019-06-01T09:30:46.758Z,4.30
2019-06-01T09:33:21.785Z,4.90
2019-06-01T09:35:56.500Z,3.63
2019-06-01T09:38:33.664Z,4.60
2019-06-01T09:41:09.368Z,4.43
2019-06-01T09:44:18.879Z,3.60
2019-06-01T09:46:52.432Z,3.40
2019-06-01T09:49:24.834Z,3.90
2019-06-01T09:51:57.268Z,3.53
2019-06-01T09:54:32.729Z,3.37
2019-06-01T09:57:07.805Z,4.50
2019-06-01T09:59:40.171Z,4.00
2019-06-01T10:02:13.306Z,4.20
2019-06-01T10:04:48.762Z,4.50
2019-06-01T10:07:24.100Z,4.32
2019-06-01T10:09:56.565Z,4.17
2019-06-01T10:12:29.834Z,3.60
2019-06-01T10:17:11.807Z,3.30
2019-06-01T10:19:48.451Z,3.83
2019-06-01T10:22:25.246Z,2.87
2019-06-01T10:24:58.769Z,2.97
2019-06-01T10:27:32.882Z,3.87
2019-06-01T10:30:10.677Z,6.30
2019-06-01T10:32:46.351Z,3.60
2019-06-01T10:35:19.818Z,4.10
2019-06-01T10:38:00.669Z,2.60
2019-06-01T10:40:33.451Z,3.30
2019-06-01T10:43:13.223Z,2.90
2019-06-01T10:45:48.592Z,2.20
2019-06-01T10:48:21.761Z,2.57
2019-06-01T10:50:54.248Z,2.30
2019-06-01T10:53:30.300Z,2.97
2019-06-01T10:56:03.841Z,2.75
2019-06-01T10:58:54.428Z,2.60
2019-06-01T11:01:34.139Z,3.30
2019-06-01T11:04:10.177Z,3.30
2019-06-01T11:06:48.314Z,2.87
2019-06-01T11:09:22.396Z,3.25
2019-06-01T11:11:55.514Z,3.03
2019-06-01T11:14:29.977Z,2.60
2019-06-01T11:17:03.386Z,3.27
2019-06-01T11:19:39.487Z,2.50
2019-06-01T11:22:37.361Z,2.40
2019-06-01T11:25:17.710Z,2.60
2019-06-01T11:27:55.935Z,2.10
2019-06-01T11:30:29.403Z,1.97
2019-06-01T11:33:02.668Z,1.90
2019-06-01T11:35:37.539Z,1.90
2019-06-01T11:38:09.934Z,2.30
2019-06-01T11:40:45.473Z,1.60
2019-06-01T11:43:17.919Z,1.87
2019-06-01T11:45:50.833Z,1.90
2019-06-01T11:48:23.818Z,2.03
2019-06-01T11:50:57.533Z,1.73
2019-06-01T11:53:30.107Z,1.90
2019-06-01T11:56:02.722Z,2.23
2019-06-01T11:58:37.200Z,2.50
2019-06-01T12:01:11.370Z,1.83
2019-06-01T12:03:46.452Z,1.80
2019-06-01T12:06:19.696Z,2.03
2019-06-01T12:08:52.956Z,1.80
2019-06-01T12:11:26.012Z,1.60
2019-06-01T12:14:00.795Z,1.90
2019-06-01T12:16:36.415Z,2.23
2019-06-01T12:19:10.252Z,2.28
2019-06-01T12:21:45.112Z,1.93
2019-06-01T12:24:24.875Z,2.00
2019-06-01T12:26:58.359Z,2.00
2019-06-01T12:29:31.033Z,1.77
2019-06-01T12:32:05.938Z,2.03
2019-06-01T12:34:39.940Z,1.90
2019-06-01T12:37:13.442Z,2.37
2019-06-01T12:39:54.277Z,1.87
2019-06-01T12:42:29.287Z,2.30
2019-06-01T12:45:06.477Z,2.13
2019-06-01T12:47:40.128Z,1.80
2019-06-01T12:50:15.623Z,1.73
2019-06-01T12:52:50.055Z,2.00
2019-06-01T12:55:27.356Z,2.57
2019-06-01T12:58:03.647Z,2.10
2019-06-01T13:00:37.093Z,2.05
2019-06-01T13:03:13.142Z,1.90
2019-06-01T13:05:47.686Z,1.93
2019-06-01T13:08:21.343Z,2.57
2019-06-01T13:10:53.954Z,2.33
2019-06-01T13:13:28.899Z,2.07
2019-06-01T13:16:04.085Z,1.90
2019-06-01T13:18:37.209Z,1.85
2019-06-01T13:21:15.738Z,1.70
2019-06-01T13:23:53.820Z,1.70
2019-06-01T13:26:28.134Z,1.77
2019-06-01T13:29:02.472Z,2.10
2019-06-01T13:31:36.659Z,2.13
2019-06-01T13:34:10.418Z,1.97
2019-06-01T13:36:46.972Z,2.10
2019-06-01T13:39:20.227Z,1.93
2019-06-01T13:41:53.474Z,2.30
2019-06-01T13:44:27.091Z,2.00
2019-06-01T13:46:59.457Z,1.83
2019-06-01T13:49:33.540Z,1.80
2019-06-01T13:52:06.760Z,1.70
2019-06-01T13:54:40.311Z,1.50
2019-06-01T13:57:12.737Z,1.70
2019-06-01T13:59:54.918Z,2.00
2019-06-01T14:02:30.998Z,1.80
2019-06-01T14:05:04.510Z,1.70
2019-06-01T14:07:38.575Z,1.73
2019-06-01T14:10:15.361Z,1.67
2019-06-01T14:12:49.316Z,1.70
2019-06-01T14:15:22.128Z,1.47
2019-06-01T14:17:56.467Z,1.70
2019-06-01T14:20:32.946Z,1.90
2019-06-01T14:23:06.023Z,1.73
2019-06-01T14:25:40.999Z,1.90
2019-06-01T14:28:14.398Z,1.70
2019-06-01T14:31:04.110Z,1.80
2019-06-01T14:33:38.375Z,1.67
2019-06-01T14:36:10.857Z,1.77
2019-06-01T14:38:46.956Z,1.53
2019-06-01T14:41:21.192Z,1.70
2019-06-01T14:44:02.445Z,1.70
2019-06-01T14:46:52.432Z,1.90
2019-06-01T14:49:28.654Z,1.60
2019-06-01T14:52:03.559Z,1.80
2019-06-01T14:54:37.379Z,1.80
2019-06-01T14:57:09.823Z,1.70
2019-06-01T14:59:44.001Z,1.70
2019-06-01T15:02:20.330Z,1.80
2019-06-01T15:04:52.721Z,2.10
2019-06-01T15:07:26.720Z,2.33
2019-06-01T15:10:00.199Z,1.80
2019-06-01T15:12:33.444Z,1.90
2019-06-01T15:15:09.492Z,1.60
2019-06-01T15:17:43.594Z,1.60
2019-06-01T15:20:17.352Z,1.40
2019-06-01T15:22:52.192Z,1.80
2019-06-01T15:25:36.109Z,1.47
2019-06-01T15:28:10.620Z,1.60
2019-06-01T15:30:44.312Z,1.90
2019-06-01T15:33:17.744Z,1.90
2019-06-01T15:39:40.838Z,1.50
2019-06-01T15:42:20.179Z,1.70
2019-06-01T15:44:53.303Z,1.40
2019-06-01T15:47:28.243Z,1.30
2019-06-01T15:50:02.597Z,1.43
2019-06-01T15:52:37.381Z,1.47
2019-06-01T15:55:10.791Z,1.40
2019-06-01T15:57:43.225Z,1.70
2019-06-01T16:00:19.354Z,1.27
2019-06-01T16:02:53.240Z,1.60
2019-06-01T16:05:29.465Z,1.43
2019-06-01T16:08:01.866Z,1.73
2019-06-01T16:10:37.899Z,1.70
2019-06-01T16:13:11.876Z,1.60
2019-06-01T16:15:44.274Z,1.53
2019-06-01T16:18:17.663Z,1.30
2019-06-01T16:20:52.034Z,1.50
2019-06-01T16:23:50.105Z,1.60
2019-06-01T16:26:24.567Z,1.60
2019-06-01T16:29:00.614Z,1.53
2019-06-01T16:31:33.519Z,1.80
2019-06-01T16:34:06.838Z,1.53
2019-06-01T16:36:39.402Z,1.48
2019-06-01T16:39:11.769Z,1.50
2019-06-01T16:41:44.949Z,1.40
2019-06-01T16:44:24.437Z,1.70
2019-06-01T16:46:57.697Z,2.00
2019-06-01T16:49:55.681Z,1.60
2019-06-01T16:52:30.250Z,1.80
2019-06-01T16:55:02.805Z,2.40
2019-06-01T16:57:35.271Z,1.70
2019-06-01T17:00:09.726Z,1.60
2019-06-01T17:02:48.023Z,1.50
2019-06-01T17:05:21.161Z,1.40
2019-06-01T17:07:56.710Z,1.70
2019-06-01T17:10:33.040Z,1.30
2019-06-01T17:13:08.338Z,1.30
2019-06-01T17:15:50.729Z,1.63
2019-06-01T17:18:27.513Z,1.42
2019-06-01T17:21:01.086Z,1.50
2019-06-01T17:23:33.860Z,1.37
2019-06-01T17:26:08.840Z,1.50
2019-06-01T17:28:41.404Z,1.40
2019-06-01T17:31:15.322Z,1.47
2019-06-01T17:33:49.200Z,1.40
2019-06-01T17:36:22.166Z,1.63
2019-06-01T17:38:54.625Z,1.70
2019-06-01T17:41:27.891Z,1.77
2019-06-01T17:44:02.794Z,1.50
2019-06-01T17:46:53.037Z,1.60
2019-06-01T17:49:27.236Z,1.70
2019-06-01T17:52:01.706Z,1.40
2019-06-01T17:54:35.261Z,1.58
2019-06-01T17:57:17.006Z,1.52
2019-06-01T17:59:51.362Z,1.60
2019-06-01T18:02:23.760Z,1.60
2019-06-01T18:04:56.167Z,1.83
2019-06-01T18:07:35.446Z,1.30
2019-06-01T18:10:12.233Z,1.33
2019-06-01T18:12:46.821Z,1.83
2019-06-01T18:15:22.550Z,1.45
2019-06-01T18:17:56.762Z,1.90
2019-06-01T18:20:31.365Z,1.80
2019-06-01T18:23:08.922Z,2.07
2019-06-01T18:25:50.422Z,1.50
2019-06-01T18:28:23.781Z,1.90
2019-06-01T18:30:56.398Z,1.77
2019-06-01T18:33:31.613Z,1.70
2019-06-01T18:36:07.549Z,2.00
2019-06-01T18:38:40.161Z,1.60
2019-06-01T18:41:18.579Z,2.17
2019-06-01T18:43:53.026Z,2.17
2019-06-01T18:46:30.374Z,1.70
2019-06-01T18:49:05.785Z,1.77
2019-06-01T18:51:38.556Z,1.80
2019-06-01T18:54:13.068Z,1.80
2019-06-01T18:56:46.918Z,2.00
2019-06-01T18:59:23.478Z,1.73
2019-06-01T19:01:58.591Z,1.90
2019-06-01T19:04:32.720Z,1.80
2019-06-01T19:07:09.171Z,1.93
2019-06-01T19:09:47.249Z,1.90
2019-06-01T19:12:24.461Z,2.03
2019-06-01T19:14:58.294Z,2.17
2019-06-01T19:17:32.203Z,2.20
2019-06-01T19:20:06.727Z,2.40
2019-06-01T19:22:40.234Z,2.60
2019-06-01T19:25:19.527Z,2.90
2019-06-01T19:27:56.302Z,2.62
2019-06-01T19:30:45.494Z,2.50
2019-06-01T19:33:22.371Z,2.60
2019-06-01T19:35:57.286Z,2.00
2019-06-01T19:38:30.262Z,2.43
2019-06-01T19:41:02.924Z,2.00
2019-06-01T19:43:40.327Z,2.10
2019-06-01T19:46:18.926Z,2.17
2019-06-01T19:48:52.936Z,2.10
2019-06-01T19:51:28.424Z,2.40
2019-06-01T19:54:04.045Z,2.10
2019-06-01T19:56:37.482Z,2.60
2019-06-01T19:59:10.003Z,2.67
2019-06-01T20:01:45.281Z,2.80
2019-06-01T20:04:18.713Z,2.50
2019-06-01T20:06:52.048Z,2.23
2019-06-01T20:09:25.199Z,2.53
2019-06-01T20:12:11.513Z,2.83
2019-06-01T20:14:51.270Z,2.63
2019-06-01T20:17:29.348Z,2.53
2019-06-01T20:20:03.421Z,2.93
2019-06-01T20:22:37.309Z,2.47
2019-06-01T20:25:13.264Z,2.60
2019-06-01T20:27:47.465Z,2.50
2019-06-01T20:30:22.203Z,2.60
2019-06-01T20:32:55.947Z,2.33
2019-06-01T20:35:29.601Z,2.50
2019-06-01T20:38:13.182Z,2.50
2019-06-01T20:40:48.644Z,2.50
2019-06-01T20:43:30.872Z,2.50
2019-06-01T20:46:35.485Z,2.50
2019-06-01T20:49:52.018Z,2.40
2019-06-01T20:52:32.759Z,2.40
2019-06-01T20:55:08.214Z,2.40
2019-06-01T20:57:41.121Z,2.80
2019-06-01T21:00:17.599Z,2.60
2019-06-01T21:02:51.415Z,2.80
2019-06-01T21:05:24.144Z,2.67
2019-06-01T21:08:04.224Z,2.80
2019-06-01T21:10:38.314Z,2.63
2019-06-01T21:13:11.345Z,2.80
2019-06-01T21:15:44.304Z,3.17
2019-06-01T21:18:20.955Z,2.97
2019-06-01T21:20:53.588Z,3.10
2019-06-01T21:23:26.741Z,2.70
2019-06-01T21:26:00.238Z,2.50
2019-06-01T21:28:33.769Z,3.30
2019-06-01T21:31:06.886Z,2.80
2019-06-01T21:33:40.991Z,2.90
2019-06-01T21:36:15.474Z,2.45
2019-06-01T21:38:49.378Z,2.60
2019-06-01T21:41:23.733Z,2.70
2019-06-01T21:43:57.392Z,2.77
2019-06-01T21:46:29.815Z,3.10
2019-06-01T21:49:04.708Z,2.93
2019-06-01T21:51:38.080Z,2.90
2019-06-01T21:54:12.588Z,2.80
2019-06-01T21:56:45.039Z,3.03
2019-06-01T21:59:18.535Z,3.20
2019-06-01T22:01:53.719Z,3.10
2019-06-01T22:04:28.596Z,3.40
2019-06-01T22:07:01.072Z,3.60
2019-06-01T22:09:35.320Z,3.40
2019-06-01T22:12:09.690Z,3.23
2019-06-01T22:14:43.058Z,3.35
2019-06-01T22:17:15.537Z,3.40
2019-06-01T22:19:47.977Z,3.33
2019-06-01T22:22:21.686Z,3.77
2019-06-01T22:24:54.252Z,3.60
2019-06-01T22:27:26.683Z,3.60
2019-06-01T22:30:07.919Z,3.70
2019-06-01T22:32:48.584Z,3.97
2019-06-01T22:35:22.801Z,3.80
2019-06-01T22:37:58.141Z,3.45
2019-06-01T22:40:32.156Z,3.30
2019-06-01T22:43:04.587Z,3.50
2019-06-01T22:45:39.328Z,3.20
2019-06-01T22:48:13.420Z,3.90
2019-06-01T22:50:45.778Z,3.67
2019-06-01T22:53:18.239Z,4.30
2019-06-01T22:55:50.653Z,4.10
2019-06-01T22:58:23.321Z,3.77
2019-06-01T23:00:55.762Z,4.00
2019-06-01T23:03:30.042Z,3.60
2019-06-01T23:06:02.735Z,3.67
2019-06-01T23:08:36.956Z,3.87
2019-06-01T23:11:09.444Z,3.93
2019-06-01T23:13:52.927Z,3.40
2019-06-01T23:16:29.737Z,3.77
2019-06-01T23:19:03.843Z,4.00
2019-06-01T23:21:37.220Z,3.73
2019-06-01T23:24:09.638Z,3.60
2019-06-01T23:26:43.739Z,3.70
2019-06-01T23:29:18.819Z,3.45
2019-06-01T23:31:51.247Z,3.58
2019-06-01T23:34:26.648Z,3.40
2019-06-01T23:37:01.279Z,3.63
2019-06-01T23:39:34.762Z,3.83
2019-06-01T23:42:08.524Z,3.70
2019-06-01T23:44:41.512Z,3.50
2019-06-01T23:47:15.411Z,4.03
2019-06-01T23:49:52.423Z,3.73
2019-06-01T23:52:25.727Z,3.70
2019-06-01T23:54:59.926Z,3.60
2019-06-01T23:57:34.111Z,3.80
